sensor_id;sensor_type;location;lat;lon;timestamp;P1;P2;P0
77538;PMS7003;67783;51.656;16.106;2023-03-01T00:00:29;24;20;12
77538;PMS7003;67783;51.656;16.106;2023-03-01T00:03:36;20;18;10
77538;PMS7003;67783;51.656;16.106;2023-03-01T00:06:39;33;26;15
77538;PMS7003;67783;51.656;16.106;2023-03-01T00:09:41;36;22;15
77538;PMS7003;67783;51.656;16.106;2023-03-01T00:12:48;31;24;14
77538;PMS7003;67783;51.656;16.106;2023-03-01T00:15:50;25;16;11
77538;PMS7003;67783;51.656;16.106;2023-03-01T00:18:53;22;18;9
77538;PMS7003;67783;51.656;16.106;2023-03-01T00:21:56;25;16;8
77538;PMS7003;67783;51.656;16.106;2023-03-01T00:24:57;18;16;11
77538;PMS7003;67783;51.656;16.106;2023-03-01T00:28:09;17;15;10
77538;PMS7003;67783;51.656;16.106;2023-03-01T00:31:12;19;18;10
77538;PMS7003;67783;51.656;16.106;2023-03-01T00:34:15;17;12;7
77538;PMS7003;67783;51.656;16.106;2023-03-01T00:37:17;26;21;13
77538;PMS7003;67783;51.656;16.106;2023-03-01T00:40:19;18;15;10
77538;PMS7003;67783;51.656;16.106;2023-03-01T00:43:30;18;15;9
77538;PMS7003;67783;51.656;16.106;2023-03-01T00:46:37;19;14;9
77538;PMS7003;67783;51.656;16.106;2023-03-01T00:49:39;0;0;0
77538;PMS7003;67783;51.656;16.106;2023-03-01T00:52:41;17;15;10
77538;PMS7003;67783;51.656;16.106;2023-03-01T00:55:43;18;12;6
77538;PMS7003;67783;51.656;16.106;2023-03-01T00:58:51;16;12;6
77538;PMS7003;67783;51.656;16.106;2023-03-01T01:01:53;12;9;6
77538;PMS7003;67783;51.656;16.106;2023-03-01T01:04:55;18;17;10
77538;PMS7003;67783;51.656;16.106;2023-03-01T01:07:57;19;15;9
77538;PMS7003;67783;51.656;16.106;2023-03-01T01:10:58;16;15;8
77538;PMS7003;67783;51.656;16.106;2023-03-01T01:14:00;21;17;9
77538;PMS7003;67783;51.656;16.106;2023-03-01T01:17:03;16;15;10
77538;PMS7003;67783;51.656;16.106;2023-03-01T01:20:09;26;20;11
77538;PMS7003;67783;51.656;16.106;2023-03-01T01:23:12;21;17;12
77538;PMS7003;67783;51.656;16.106;2023-03-01T01:29:34;17;13;7
77538;PMS7003;67783;51.656;16.106;2023-03-01T01:32:36;15;14;8
77538;PMS7003;67783;51.656;16.106;2023-03-01T01:35:38;18;13;8
77538;PMS7003;67783;51.656;16.106;2023-03-01T01:38:40;11;8;5
77538;PMS7003;67783;51.656;16.106;2023-03-01T01:41:43;16;16;11
77538;PMS7003;67783;51.656;16.106;2023-03-01T01:48:12;23;18;11
77538;PMS7003;67783;51.656;16.106;2023-03-01T01:51:20;20;15;9
77538;PMS7003;67783;51.656;16.106;2023-03-01T01:54:29;16;15;9
77538;PMS7003;67783;51.656;16.106;2023-03-01T01:57:38;18;18;12
77538;PMS7003;67783;51.656;16.106;2023-03-01T02:00:44;16;15;10
77538;PMS7003;67783;51.656;16.106;2023-03-01T02:03:51;17;14;8
77538;PMS7003;67783;51.656;16.106;2023-03-01T02:10:07;20;15;9
77538;PMS7003;67783;51.656;16.106;2023-03-01T02:13:18;15;11;8
77538;PMS7003;67783;51.656;16.106;2023-03-01T02:16:20;9;8;4
77538;PMS7003;67783;51.656;16.106;2023-03-01T02:19:41;16;13;8
77538;PMS7003;67783;51.656;16.106;2023-03-01T02:22:45;6;6;4
77538;PMS7003;67783;51.656;16.106;2023-03-01T02:29:02;14;12;8
77538;PMS7003;67783;51.656;16.106;2023-03-01T02:32:11;20;13;9
77538;PMS7003;67783;51.656;16.106;2023-03-01T02:35:16;23;13;9
77538;PMS7003;67783;51.656;16.106;2023-03-01T02:38:20;20;16;9
77538;PMS7003;67783;51.656;16.106;2023-03-01T02:41:24;14;9;6
77538;PMS7003;67783;51.656;16.106;2023-03-01T02:44:30;18;12;8
77538;PMS7003;67783;51.656;16.106;2023-03-01T02:47:35;18;15;9
77538;PMS7003;67783;51.656;16.106;2023-03-01T02:57:03;22;18;10
77538;PMS7003;67783;51.656;16.106;2023-03-01T03:00:06;21;14;9
77538;PMS7003;67783;51.656;16.106;2023-03-01T03:03:12;16;11;8
77538;PMS7003;67783;51.656;16.106;2023-03-01T03:06:16;21;18;11
77538;PMS7003;67783;51.656;16.106;2023-03-01T03:09:18;11;9;5
77538;PMS7003;67783;51.656;16.106;2023-03-01T03:12:23;15;13;7
77538;PMS7003;67783;51.656;16.106;2023-03-01T03:15:25;11;9;6
77538;PMS7003;67783;51.656;16.106;2023-03-01T03:18:28;16;11;9
77538;PMS7003;67783;51.656;16.106;2023-03-01T03:21:33;14;10;7
77538;PMS7003;67783;51.656;16.106;2023-03-01T03:24:35;15;14;9
77538;PMS7003;67783;51.656;16.106;2023-03-01T03:27:44;7;5;0
77538;PMS7003;67783;51.656;16.106;2023-03-01T03:30:48;13;11;4
77538;PMS7003;67783;51.656;16.106;2023-03-01T03:33:50;15;14;9
77538;PMS7003;67783;51.656;16.106;2023-03-01T03:36:55;15;12;8
77538;PMS7003;67783;51.656;16.106;2023-03-01T03:40:00;10;9;6
77538;PMS7003;67783;51.656;16.106;2023-03-01T03:43:09;10;6;4
77538;PMS7003;67783;51.656;16.106;2023-03-01T03:46:13;11;10;6
77538;PMS7003;67783;51.656;16.106;2023-03-01T03:49:14;13;11;7
77538;PMS7003;67783;51.656;16.106;2023-03-01T03:52:16;11;8;5
77538;PMS7003;67783;51.656;16.106;2023-03-01T03:55:18;12;12;6
77538;PMS7003;67783;51.656;16.106;2023-03-01T03:58:26;10;9;5
77538;PMS7003;67783;51.656;16.106;2023-03-01T04:01:28;11;8;4
77538;PMS7003;67783;51.656;16.106;2023-03-01T04:04:30;12;9;6
77538;PMS7003;67783;51.656;16.106;2023-03-01T04:07:32;14;8;5
77538;PMS7003;67783;51.656;16.106;2023-03-01T04:10:35;9;7;5
77538;PMS7003;67783;51.656;16.106;2023-03-01T04:13:47;13;8;6
77538;PMS7003;67783;51.656;16.106;2023-03-01T04:16:49;12;9;7
77538;PMS7003;67783;51.656;16.106;2023-03-01T04:19:51;7;7;5
77538;PMS7003;67783;51.656;16.106;2023-03-01T04:26:16;7;5;4
77538;PMS7003;67783;51.656;16.106;2023-03-01T04:29:21;10;8;5
77538;PMS7003;67783;51.656;16.106;2023-03-01T04:32:23;9;8;5
77538;PMS7003;67783;51.656;16.106;2023-03-01T04:35:25;6;6;4
77538;PMS7003;67783;51.656;16.106;2023-03-01T04:38:27;8;6;5
77538;PMS7003;67783;51.656;16.106;2023-03-01T04:41:28;15;12;8
77538;PMS7003;67783;51.656;16.106;2023-03-01T04:44:30;18;15;10
77538;PMS7003;67783;51.656;16.106;2023-03-01T04:47:32;15;11;8
77538;PMS7003;67783;51.656;16.106;2023-03-01T04:50:37;16;12;6
77538;PMS7003;67783;51.656;16.106;2023-03-01T04:53:39;11;9;6
77538;PMS7003;67783;51.656;16.106;2023-03-01T04:56:42;14;10;7
77538;PMS7003;67783;51.656;16.106;2023-03-01T04:59:44;13;9;6
77538;PMS7003;67783;51.656;16.106;2023-03-01T05:02:50;9;7;4
77538;PMS7003;67783;51.656;16.106;2023-03-01T05:05:58;9;8;5
77538;PMS7003;67783;51.656;16.106;2023-03-01T05:09:00;14;11;6
77538;PMS7003;67783;51.656;16.106;2023-03-01T05:12:02;10;8;7
77538;PMS7003;67783;51.656;16.106;2023-03-01T05:15:05;12;9;6
77538;PMS7003;67783;51.656;16.106;2023-03-01T05:18:08;9;6;3
77538;PMS7003;67783;51.656;16.106;2023-03-01T05:21:19;10;9;5
77538;PMS7003;67783;51.656;16.106;2023-03-01T05:24:21;10;7;4
77538;PMS7003;67783;51.656;16.106;2023-03-01T05:27:23;10;10;7
77538;PMS7003;67783;51.656;16.106;2023-03-01T05:30:25;15;9;6
77538;PMS7003;67783;51.656;16.106;2023-03-01T05:33:27;14;10;7
77538;PMS7003;67783;51.656;16.106;2023-03-01T05:36:40;11;10;7
77538;PMS7003;67783;51.656;16.106;2023-03-01T05:39:42;6;6;4
77538;PMS7003;67783;51.656;16.106;2023-03-01T05:42:47;10;7;5
77538;PMS7003;67783;51.656;16.106;2023-03-01T05:45:51;15;9;5
77538;PMS7003;67783;51.656;16.106;2023-03-01T05:48:52;14;7;4
77538;PMS7003;67783;51.656;16.106;2023-03-01T05:52:01;11;9;6
77538;PMS7003;67783;51.656;16.106;2023-03-01T05:55:03;8;8;5
77538;PMS7003;67783;51.656;16.106;2023-03-01T05:58:06;9;9;7
77538;PMS7003;67783;51.656;16.106;2023-03-01T06:01:12;13;8;5
77538;PMS7003;67783;51.656;16.106;2023-03-01T06:04:14;18;14;8
77538;PMS7003;67783;51.656;16.106;2023-03-01T06:07:22;31;27;16
77538;PMS7003;67783;51.656;16.106;2023-03-01T06:10:23;49;37;23
77538;PMS7003;67783;51.656;16.106;2023-03-01T06:13:25;36;25;14
77538;PMS7003;67783;51.656;16.106;2023-03-01T06:16:27;20;19;12
77538;PMS7003;67783;51.656;16.106;2023-03-01T06:19:29;32;25;17
77538;PMS7003;67783;51.656;16.106;2023-03-01T06:22:31;32;21;14
77538;PMS7003;67783;51.656;16.106;2023-03-01T06:25:33;29;23;15
77538;PMS7003;67783;51.656;16.106;2023-03-01T06:28:38;28;23;14
77538;PMS7003;67783;51.656;16.106;2023-03-01T06:31:40;21;16;9
77538;PMS7003;67783;51.656;16.106;2023-03-01T06:34:42;38;28;19
77538;PMS7003;67783;51.656;16.106;2023-03-01T06:37:45;23;15;5
77538;PMS7003;67783;51.656;16.106;2023-03-01T06:40:52;24;23;12
77538;PMS7003;67783;51.656;16.106;2023-03-01T06:43:59;16;16;11
77538;PMS7003;67783;51.656;16.106;2023-03-01T06:47:01;20;16;10
77538;PMS7003;67783;51.656;16.106;2023-03-01T06:50:04;20;17;10
77538;PMS7003;67783;51.656;16.106;2023-03-01T06:53:06;22;18;11
77538;PMS7003;67783;51.656;16.106;2023-03-01T06:56:08;27;19;12
77538;PMS7003;67783;51.656;16.106;2023-03-01T06:59:20;19;18;10
77538;PMS7003;67783;51.656;16.106;2023-03-01T07:02:22;28;21;13
77538;PMS7003;67783;51.656;16.106;2023-03-01T07:05:24;23;21;13
77538;PMS7003;67783;51.656;16.106;2023-03-01T07:08:26;25;19;9
77538;PMS7003;67783;51.656;16.106;2023-03-01T07:11:28;24;20;10
77538;PMS7003;67783;51.656;16.106;2023-03-01T07:14:30;23;21;13
77538;PMS7003;67783;51.656;16.106;2023-03-01T07:17:31;22;18;8
77538;PMS7003;67783;51.656;16.106;2023-03-01T07:20:37;18;14;9
77538;PMS7003;67783;51.656;16.106;2023-03-01T07:23:38;30;22;14
77538;PMS7003;67783;51.656;16.106;2023-03-01T07:26:40;16;11;7
77538;PMS7003;67783;51.656;16.106;2023-03-01T07:29:42;16;14;10
77538;PMS7003;67783;51.656;16.106;2023-03-01T07:32:44;33;26;14
77538;PMS7003;67783;51.656;16.106;2023-03-01T07:35:46;27;22;12
77538;PMS7003;67783;51.656;16.106;2023-03-01T07:38:48;39;28;16
77538;PMS7003;67783;51.656;16.106;2023-03-01T07:41:53;32;22;11
77538;PMS7003;67783;51.656;16.106;2023-03-01T07:44:55;32;25;14
77538;PMS7003;67783;51.656;16.106;2023-03-01T07:47:56;31;26;15
77538;PMS7003;67783;51.656;16.106;2023-03-01T07:50:59;26;22;13
77538;PMS7003;67783;51.656;16.106;2023-03-01T07:54:02;27;23;16
77538;PMS7003;67783;51.656;16.106;2023-03-01T07:57:14;29;26;18
77538;PMS7003;67783;51.656;16.106;2023-03-01T08:00:16;32;27;16
77538;PMS7003;67783;51.656;16.106;2023-03-01T08:03:18;33;27;16
77538;PMS7003;67783;51.656;16.106;2023-03-01T08:06:20;36;27;12
77538;PMS7003;67783;51.656;16.106;2023-03-01T08:09:22;30;25;15
77538;PMS7003;67783;51.656;16.106;2023-03-01T08:12:35;34;26;16
77538;PMS7003;67783;51.656;16.106;2023-03-01T08:15:37;27;20;13
77538;PMS7003;67783;51.656;16.106;2023-03-01T08:18:39;23;18;10
77538;PMS7003;67783;51.656;16.106;2023-03-01T08:21:41;36;30;18
77538;PMS7003;67783;51.656;16.106;2023-03-01T08:24:43;30;22;15
77538;PMS7003;67783;51.656;16.106;2023-03-01T08:27:44;25;22;15
77538;PMS7003;67783;51.656;16.106;2023-03-01T08:30:46;33;24;14
77538;PMS7003;67783;51.656;16.106;2023-03-01T08:33:52;40;28;16
77538;PMS7003;67783;51.656;16.106;2023-03-01T08:36:56;41;29;14
77538;PMS7003;67783;51.656;16.106;2023-03-01T08:39:59;32;29;18
77538;PMS7003;67783;51.656;16.106;2023-03-01T08:43:01;29;19;12
77538;PMS7003;67783;51.656;16.106;2023-03-01T08:46:04;18;16;13
77538;PMS7003;67783;51.656;16.106;2023-03-01T08:52:21;22;17;9
77538;PMS7003;67783;51.656;16.106;2023-03-01T08:55:25;18;14;7
77538;PMS7003;67783;51.656;16.106;2023-03-01T08:58:26;17;15;9
77538;PMS7003;67783;51.656;16.106;2023-03-01T09:01:28;24;16;8
77538;PMS7003;67783;51.656;16.106;2023-03-01T09:04:33;16;11;6
77538;PMS7003;67783;51.656;16.106;2023-03-01T09:07:35;13;11;6
77538;PMS7003;67783;51.656;16.106;2023-03-01T09:10:37;7;7;4
77538;PMS7003;67783;51.656;16.106;2023-03-01T09:13:40;14;9;6
77538;PMS7003;67783;51.656;16.106;2023-03-01T09:16:42;10;7;5
77538;PMS7003;67783;51.656;16.106;2023-03-01T09:19:54;20;13;8
77538;PMS7003;67783;51.656;16.106;2023-03-01T09:22:56;9;9;4
77538;PMS7003;67783;51.656;16.106;2023-03-01T09:25:57;11;10;7
77538;PMS7003;67783;51.656;16.106;2023-03-01T09:28:59;11;11;7
77538;PMS7003;67783;51.656;16.106;2023-03-01T09:32:01;9;8;6
77538;PMS7003;67783;51.656;16.106;2023-03-01T09:35:03;13;10;6
77538;PMS7003;67783;51.656;16.106;2023-03-01T09:38:06;10;9;5
77538;PMS7003;67783;51.656;16.106;2023-03-01T09:44:26;6;5;3
77538;PMS7003;67783;51.656;16.106;2023-03-01T09:47:35;13;10;6
77538;PMS7003;67783;51.656;16.106;2023-03-01T09:50:41;12;11;7
77538;PMS7003;67783;51.656;16.106;2023-03-01T09:53:47;6;5;3
77538;PMS7003;67783;51.656;16.106;2023-03-01T10:03:24;6;5;2
77538;PMS7003;67783;51.656;16.106;2023-03-01T10:06:33;9;6;4
77538;PMS7003;67783;51.656;16.106;2023-03-01T10:09:38;9;4;2
77538;PMS7003;67783;51.656;16.106;2023-03-01T10:12:42;7;6;4
77538;PMS7003;67783;51.656;16.106;2023-03-01T10:15:50;6;5;3
77538;PMS7003;67783;51.656;16.106;2023-03-01T10:19:04;5;4;4
77538;PMS7003;67783;51.656;16.106;2023-03-01T10:32:04;7;5;3
77538;PMS7003;67783;51.656;16.106;2023-03-01T10:35:16;5;5;4
77538;PMS7003;67783;51.656;16.106;2023-03-01T10:38:22;13;8;5
77538;PMS7003;67783;51.656;16.106;2023-03-01T10:41:30;13;7;5
77538;PMS7003;67783;51.656;16.106;2023-03-01T10:47:44;2;0;0
77538;PMS7003;67783;51.656;16.106;2023-03-01T10:50:46;4;4;2
77538;PMS7003;67783;51.656;16.106;2023-03-01T10:53:53;7;5;3
77538;PMS7003;67783;51.656;16.106;2023-03-01T10:56:59;13;8;5
77538;PMS7003;67783;51.656;16.106;2023-03-01T11:06:33;7;4;4
77538;PMS7003;67783;51.656;16.106;2023-03-01T11:09:36;5;4;2
77538;PMS7003;67783;51.656;16.106;2023-03-01T11:12:39;6;6;4
77538;PMS7003;67783;51.656;16.106;2023-03-01T11:22:19;6;5;3
77538;PMS7003;67783;51.656;16.106;2023-03-01T11:25:29;5;4;3
77538;PMS7003;67783;51.656;16.106;2023-03-01T11:28:37;6;6;4
77538;PMS7003;67783;51.656;16.106;2023-03-01T11:31:41;7;6;4
77538;PMS7003;67783;51.656;16.106;2023-03-01T11:34:49;5;3;2
77538;PMS7003;67783;51.656;16.106;2023-03-01T11:41:18;4;2;1
77538;PMS7003;67783;51.656;16.106;2023-03-01T11:44:28;6;4;2
77538;PMS7003;67783;51.656;16.106;2023-03-01T11:50:48;5;4;3
77538;PMS7003;67783;51.656;16.106;2023-03-01T12:00:34;4;2;2
77538;PMS7003;67783;51.656;16.106;2023-03-01T12:03:43;7;7;3
77538;PMS7003;67783;51.656;16.106;2023-03-01T12:33:45;1;1;1
77538;PMS7003;67783;51.656;16.106;2023-03-01T12:46:52;3;1;0
77538;PMS7003;67783;51.656;16.106;2023-03-01T12:53:22;0;0;0
77538;PMS7003;67783;51.656;16.106;2023-03-01T12:56:30;0;0;0
77538;PMS7003;67783;51.656;16.106;2023-03-01T12:59:39;1;1;1
77538;PMS7003;67783;51.656;16.106;2023-03-01T13:06:08;2;2;1
77538;PMS7003;67783;51.656;16.106;2023-03-01T13:09:31;6;2;2
77538;PMS7003;67783;51.656;16.106;2023-03-01T13:15:56;3;2;1
77538;PMS7003;67783;51.656;16.106;2023-03-01T13:25:26;2;2;2
77538;PMS7003;67783;51.656;16.106;2023-03-01T13:34:59;6;3;2
77538;PMS7003;67783;51.656;16.106;2023-03-01T13:44:35;3;3;1
77538;PMS7003;67783;51.656;16.106;2023-03-01T13:47:40;3;1;1
77538;PMS7003;67783;51.656;16.106;2023-03-01T13:53:54;4;2;2
77538;PMS7003;67783;51.656;16.106;2023-03-01T13:57:05;3;3;2
77538;PMS7003;67783;51.656;16.106;2023-03-01T14:03:26;4;2;1
77538;PMS7003;67783;51.656;16.106;2023-03-01T14:06:32;3;3;3
77538;PMS7003;67783;51.656;16.106;2023-03-01T14:09:37;6;3;2
77538;PMS7003;67783;51.656;16.106;2023-03-01T14:12:44;4;3;2
77538;PMS7003;67783;51.656;16.106;2023-03-01T14:19:16;4;3;2
77538;PMS7003;67783;51.656;16.106;2023-03-01T14:25:35;5;3;2
77538;PMS7003;67783;51.656;16.106;2023-03-01T14:28:39;2;0;0
77538;PMS7003;67783;51.656;16.106;2023-03-01T14:31:44;4;2;1
77538;PMS7003;67783;51.656;16.106;2023-03-01T14:34:57;3;3;2
77538;PMS7003;67783;51.656;16.106;2023-03-01T14:38:00;6;6;3
77538;PMS7003;67783;51.656;16.106;2023-03-01T14:44:23;6;3;2
77538;PMS7003;67783;51.656;16.106;2023-03-01T14:47:26;3;3;1
77538;PMS7003;67783;51.656;16.106;2023-03-01T14:50:32;4;4;3
77538;PMS7003;67783;51.656;16.106;2023-03-01T14:53:39;5;4;3
77538;PMS7003;67783;51.656;16.106;2023-03-01T14:56:44;7;4;2
77538;PMS7003;67783;51.656;16.106;2023-03-01T14:59:47;7;5;3
77538;PMS7003;67783;51.656;16.106;2023-03-01T15:02:54;6;4;3
77538;PMS7003;67783;51.656;16.106;2023-03-01T15:05:58;3;3;2
77538;PMS7003;67783;51.656;16.106;2023-03-01T15:09:15;3;3;2
77538;PMS7003;67783;51.656;16.106;2023-03-01T15:15:35;3;3;2
77538;PMS7003;67783;51.656;16.106;2023-03-01T15:18:45;8;6;4
77538;PMS7003;67783;51.656;16.106;2023-03-01T15:21:49;5;4;3
77538;PMS7003;67783;51.656;16.106;2023-03-01T15:24:51;5;3;2
77538;PMS7003;67783;51.656;16.106;2023-03-01T15:27:54;3;3;2
77538;PMS7003;67783;51.656;16.106;2023-03-01T15:34:21;6;4;2
77538;PMS7003;67783;51.656;16.106;2023-03-01T15:40:48;8;4;3
77538;PMS7003;67783;51.656;16.106;2023-03-01T15:43:49;6;5;2
77538;PMS7003;67783;51.656;16.106;2023-03-01T15:46:54;5;4;3
77538;PMS7003;67783;51.656;16.106;2023-03-01T15:49:57;9;7;4
77538;PMS7003;67783;51.656;16.106;2023-03-01T15:53:10;9;7;4
77538;PMS7003;67783;51.656;16.106;2023-03-01T15:56:15;6;6;4
77538;PMS7003;67783;51.656;16.106;2023-03-01T15:59:17;5;3;2
77538;PMS7003;67783;51.656;16.106;2023-03-01T16:02:20;7;7;4
77538;PMS7003;67783;51.656;16.106;2023-03-01T16:05:24;6;5;4
77538;PMS7003;67783;51.656;16.106;2023-03-01T16:08:31;5;5;3
77538;PMS7003;67783;51.656;16.106;2023-03-01T16:11:34;7;5;3
77538;PMS7003;67783;51.656;16.106;2023-03-01T16:14:38;5;4;4
77538;PMS7003;67783;51.656;16.106;2023-03-01T16:17:40;6;4;3
77538;PMS7003;67783;51.656;16.106;2023-03-01T16:20:42;5;3;2
77538;PMS7003;67783;51.656;16.106;2023-03-01T16:23:51;5;5;4
77538;PMS7003;67783;51.656;16.106;2023-03-01T16:26:54;5;5;4
77538;PMS7003;67783;51.656;16.106;2023-03-01T16:29:56;11;9;4
77538;PMS7003;67783;51.656;16.106;2023-03-01T16:32:58;7;5;4
77538;PMS7003;67783;51.656;16.106;2023-03-01T16:36:00;9;7;4
77538;PMS7003;67783;51.656;16.106;2023-03-01T16:39:11;8;8;6
77538;PMS7003;67783;51.656;16.106;2023-03-01T16:42:13;8;8;4
77538;PMS7003;67783;51.656;16.106;2023-03-01T16:45:17;10;9;5
77538;PMS7003;67783;51.656;16.106;2023-03-01T16:48:20;14;8;6
77538;PMS7003;67783;51.656;16.106;2023-03-01T16:51:22;11;11;7
77538;PMS7003;67783;51.656;16.106;2023-03-01T16:54:32;27;22;8
77538;PMS7003;67783;51.656;16.106;2023-03-01T16:57:34;28;23;14
77538;PMS7003;67783;51.656;16.106;2023-03-01T17:00:37;8;8;6
77538;PMS7003;67783;51.656;16.106;2023-03-01T17:03:39;18;15;8
77538;PMS7003;67783;51.656;16.106;2023-03-01T17:06:41;10;10;7
77538;PMS7003;67783;51.656;16.106;2023-03-01T17:09:53;12;9;6
77538;PMS7003;67783;51.656;16.106;2023-03-01T17:12:55;3;2;2
77538;PMS7003;67783;51.656;16.106;2023-03-01T17:15:56;9;7;5
77538;PMS7003;67783;51.656;16.106;2023-03-01T17:18:58;28;20;10
77538;PMS7003;67783;51.656;16.106;2023-03-01T17:22:01;36;26;15
77538;PMS7003;67783;51.656;16.106;2023-03-01T17:25:17;42;32;21
77538;PMS7003;67783;51.656;16.106;2023-03-01T17:28:21;49;39;21
77538;PMS7003;67783;51.656;16.106;2023-03-01T17:31:25;20;16;9
77538;PMS7003;67783;51.656;16.106;2023-03-01T17:34:27;35;31;21
77538;PMS7003;67783;51.656;16.106;2023-03-01T17:37:31;39;33;21
77538;PMS7003;67783;51.656;16.106;2023-03-01T17:40:36;37;27;18
77538;PMS7003;67783;51.656;16.106;2023-03-01T17:43:39;26;23;12
77538;PMS7003;67783;51.656;16.106;2023-03-01T17:46:41;37;29;20
77538;PMS7003;67783;51.656;16.106;2023-03-01T17:49:43;53;42;24
77538;PMS7003;67783;51.656;16.106;2023-03-01T17:52:45;70;55;28
77538;PMS7003;67783;51.656;16.106;2023-03-01T17:56:01;64;48;26
77538;PMS7003;67783;51.656;16.106;2023-03-01T17:59:04;50;38;20
77538;PMS7003;67783;51.656;16.106;2023-03-01T18:02:06;31;25;15
77538;PMS7003;67783;51.656;16.106;2023-03-01T18:05:24;28;24;13
77538;PMS7003;67783;51.656;16.106;2023-03-01T18:08:26;49;37;23
77538;PMS7003;67783;51.656;16.106;2023-03-01T18:11:28;57;42;22
77538;PMS7003;67783;51.656;16.106;2023-03-01T18:14:30;40;32;18
77538;PMS7003;67783;51.656;16.106;2023-03-01T18:17:33;47;33;19
77538;PMS7003;67783;51.656;16.106;2023-03-01T18:20:44;47;37;19
77538;PMS7003;67783;51.656;16.106;2023-03-01T18:23:52;52;42;24
77538;PMS7003;67783;51.656;16.106;2023-03-01T18:26:54;25;25;15
77538;PMS7003;67783;51.656;16.106;2023-03-01T18:29:56;13;12;10
77538;PMS7003;67783;51.656;16.106;2023-03-01T18:32:58;13;12;6
77538;PMS7003;67783;51.656;16.106;2023-03-01T18:36:12;13;12;8
77538;PMS7003;67783;51.656;16.106;2023-03-01T18:39:20;14;9;4
77538;PMS7003;67783;51.656;16.106;2023-03-01T18:42:24;17;14;9
77538;PMS7003;67783;51.656;16.106;2023-03-01T18:45:32;28;23;12
77538;PMS7003;67783;51.656;16.106;2023-03-01T18:48:34;37;29;18
77538;PMS7003;67783;51.656;16.106;2023-03-01T18:51:37;32;27;15
77538;PMS7003;67783;51.656;16.106;2023-03-01T18:54:40;16;15;11
77538;PMS7003;67783;51.656;16.106;2023-03-01T18:57:41;13;11;6
77538;PMS7003;67783;51.656;16.106;2023-03-01T19:00:53;13;10;7
77538;PMS7003;67783;51.656;16.106;2023-03-01T19:03:55;11;9;5
77538;PMS7003;67783;51.656;16.106;2023-03-01T19:06:58;8;6;5
77538;PMS7003;67783;51.656;16.106;2023-03-01T19:10:02;10;9;5
77538;PMS7003;67783;51.656;16.106;2023-03-01T19:13:04;20;10;0
77538;PMS7003;67783;51.656;16.106;2023-03-01T19:16:15;41;30;11
77538;PMS7003;67783;51.656;16.106;2023-03-01T19:19:19;34;26;14
77538;PMS7003;67783;51.656;16.106;2023-03-01T19:22:21;19;14;9
77538;PMS7003;67783;51.656;16.106;2023-03-01T19:25:23;12;9;6
77538;PMS7003;67783;51.656;16.106;2023-03-01T19:28:25;9;8;3
77538;PMS7003;67783;51.656;16.106;2023-03-01T19:31:35;35;29;16
77538;PMS7003;67783;51.656;16.106;2023-03-01T19:34:38;53;40;23
77538;PMS7003;67783;51.656;16.106;2023-03-01T19:37:42;48;38;23
77538;PMS7003;67783;51.656;16.106;2023-03-01T19:40:44;62;44;25
77538;PMS7003;67783;51.656;16.106;2023-03-01T19:43:45;62;48;26
77538;PMS7003;67783;51.656;16.106;2023-03-01T19:46:56;45;36;22
77538;PMS7003;67783;51.656;16.106;2023-03-01T19:49:58;36;30;18
77538;PMS7003;67783;51.656;16.106;2023-03-01T19:53:00;26;23;14
77538;PMS7003;67783;51.656;16.106;2023-03-01T19:56:05;28;21;13
77538;PMS7003;67783;51.656;16.106;2023-03-01T19:59:09;28;23;15
77538;PMS7003;67783;51.656;16.106;2023-03-01T20:02:16;58;43;25
77538;PMS7003;67783;51.656;16.106;2023-03-01T20:05:18;47;38;22
77538;PMS7003;67783;51.656;16.106;2023-03-01T20:08:22;41;33;20
77538;PMS7003;67783;51.656;16.106;2023-03-01T20:11:24;42;32;17
77538;PMS7003;67783;51.656;16.106;2023-03-01T20:14:26;37;26;13
77538;PMS7003;67783;51.656;16.106;2023-03-01T20:17:38;21;19;11
77538;PMS7003;67783;51.656;16.106;2023-03-01T20:20:40;33;26;15
77538;PMS7003;67783;51.656;16.106;2023-03-01T20:23:43;34;25;15
77538;PMS7003;67783;51.656;16.106;2023-03-01T20:26:45;35;23;14
77538;PMS7003;67783;51.656;16.106;2023-03-01T20:29:47;30;22;16
77538;PMS7003;67783;51.656;16.106;2023-03-01T20:32:59;34;28;14
77538;PMS7003;67783;51.656;16.106;2023-03-01T20:36:01;27;23;14
77538;PMS7003;67783;51.656;16.106;2023-03-01T20:39:04;29;23;15
77538;PMS7003;67783;51.656;16.106;2023-03-01T20:42:05;41;28;18
77538;PMS7003;67783;51.656;16.106;2023-03-01T20:45:07;35;25;14
77538;PMS7003;67783;51.656;16.106;2023-03-01T20:48:20;37;29;17
77538;PMS7003;67783;51.656;16.106;2023-03-01T20:51:22;30;23;15
77538;PMS7003;67783;51.656;16.106;2023-03-01T20:54:24;29;24;15
77538;PMS7003;67783;51.656;16.106;2023-03-01T20:57:27;37;27;15
77538;PMS7003;67783;51.656;16.106;2023-03-01T21:00:30;37;29;16
77538;PMS7003;67783;51.656;16.106;2023-03-01T21:03:41;34;27;15
77538;PMS7003;67783;51.656;16.106;2023-03-01T21:06:43;38;28;17
77538;PMS7003;67783;51.656;16.106;2023-03-01T21:09:45;39;29;17
77538;PMS7003;67783;51.656;16.106;2023-03-01T21:12:47;36;30;18
77538;PMS7003;67783;51.656;16.106;2023-03-01T21:16:08;37;28;16
77538;PMS7003;67783;51.656;16.106;2023-03-01T21:19:07;34;26;13
77538;PMS7003;67783;51.656;16.106;2023-03-01T21:22:14;31;28;17
77538;PMS7003;67783;51.656;16.106;2023-03-01T21:25:16;40;27;16
77538;PMS7003;67783;51.656;16.106;2023-03-01T21:28:29;40;29;15
77538;PMS7003;67783;51.656;16.106;2023-03-01T21:31:33;23;22;15
77538;PMS7003;67783;51.656;16.106;2023-03-01T21:34:36;38;32;20
77538;PMS7003;67783;51.656;16.106;2023-03-01T21:37:39;33;24;15
77538;PMS7003;67783;51.656;16.106;2023-03-01T21:40:41;38;25;14
77538;PMS7003;67783;51.656;16.106;2023-03-01T21:43:51;42;32;19
77538;PMS7003;67783;51.656;16.106;2023-03-01T21:46:54;39;29;14
77538;PMS7003;67783;51.656;16.106;2023-03-01T21:49:58;47;35;19
77538;PMS7003;67783;51.656;16.106;2023-03-01T21:53:00;44;34;20
77538;PMS7003;67783;51.656;16.106;2023-03-01T21:56:05;43;30;18
77538;PMS7003;67783;51.656;16.106;2023-03-01T21:59:15;32;24;15
77538;PMS7003;67783;51.656;16.106;2023-03-01T22:02:18;42;31;19
77538;PMS7003;67783;51.656;16.106;2023-03-01T22:05:20;42;35;18
77538;PMS7003;67783;51.656;16.106;2023-03-01T22:08:22;35;29;16
77538;PMS7003;67783;51.656;16.106;2023-03-01T22:11:24;32;27;17
77538;PMS7003;67783;51.656;16.106;2023-03-01T22:14:31;44;31;18
77538;PMS7003;67783;51.656;16.106;2023-03-01T22:17:34;40;26;16
77538;PMS7003;67783;51.656;16.106;2023-03-01T22:20:36;29;20;12
77538;PMS7003;67783;51.656;16.106;2023-03-01T22:23:40;16;13;9
77538;PMS7003;67783;51.656;16.106;2023-03-01T22:26:43;17;15;8
77538;PMS7003;67783;51.656;16.106;2023-03-01T22:29:52;28;18;12
77538;PMS7003;67783;51.656;16.106;2023-03-01T22:32:54;28;25;14
77538;PMS7003;67783;51.656;16.106;2023-03-01T22:35:56;25;22;11